Time;durP1;ratioP1;P1;durP2;ratioP2;P2;SDS_P1;SDS_P2;PMS_P1;PMS_P2;Temp;Humidity;BMP_temperature;BMP_pressure;BME280_temperature;BME280_humidity;BME280_pressure;Samples;Min_cycle;Max_cycle;Signal;HPM_P1;HPM_P2
2022/07/15 05:50:46;;;;;;;7.07;3.92;;;;;;;16.69;68.04;100651.25;6303895;22;885412;-62
2022/07/15 05:53:13;;;;;;;8.73;4.60;;;;;;;16.75;67.23;100651.28;6200690;22;1245581;-66
2022/07/15 05:55:39;;;;;;;9.25;4.65;;;;;;;16.82;67.25;100659.38;6248457;22;20026;-64
2022/07/15 05:58:06;;;;;;;7.70;4.25;;;;;;;16.89;65.64;100656.69;6248589;22;20443;-68
2022/07/15 06:00:32;;;;;;;8.18;3.58;;;;;;;16.90;65.82;100656.53;6224108;23;20019;-66
2022/07/15 06:02:58;;;;;;;6.88;4.32;;;;;;;16.95;66.31;100656.75;6218077;23;20043;-69
2022/07/15 06:05:26;;;;;;;9.98;4.45;;;;;;;17.00;65.36;100653.41;6218622;23;20142;-66
2022/07/15 06:07:56;;;;;;;8.65;3.90;;;;;;;17.06;65.46;100658.81;6218162;23;20336;-69
2022/07/15 06:10:27;;;;;;;7.28;3.97;;;;;;;17.12;65.46;100661.72;6217580;23;20379;-66
2022/07/15 06:12:55;;;;;;;;;;;;;;;17.21;65.23;100669.38;6218546;23;20107;-63
2022/07/15 06:15:22;;;;;;;10.57;4.03;;;;;;;17.29;65.48;100661.09;6218022;23;19939;-63
2022/07/15 06:17:49;;;;;;;6.93;3.70;;;;;;;17.34;65.86;100666.69;6218084;23;20039;-63
2022/07/15 06:20:16;;;;;;;5.63;3.65;;;;;;;17.39;65.34;100670.63;6244638;22;20016;-64
2022/07/15 06:22:41;;;;;;;10.15;4.15;;;;;;;17.46;65.46;100669.56;6218009;23;20415;-63
2022/07/15 06:25:08;;;;;;;6.20;4.03;;;;;;;17.52;65.14;100663.34;6217819;23;20020;-63
2022/07/15 06:27:34;;;;;;;8.55;4.15;;;;;;;17.57;64.22;100671.66;6217927;23;20016;-63
2022/07/15 06:30:00;;;;;;;6.72;3.60;;;;;;;17.63;63.86;100667.28;6244380;22;20643;-63
2022/07/15 06:32:25;;;;;;;4.50;3.28;;;;;;;17.72;63.64;100671.44;6244789;23;20012;-47
2022/07/15 06:34:51;;;;;;;7.53;3.60;;;;;;;17.83;63.57;100670.00;6217909;23;20469;-46
2022/07/15 06:37:17;;;;;;;6.75;3.55;;;;;;;17.91;61.83;100669.75;6218345;23;20020;-47
2022/07/15 06:39:43;;;;;;;7.03;2.97;;;;;;;18.02;59.75;100663.72;6192610;23;20027;-46
2022/07/15 06:42:09;;;;;;;6.97;3.28;;;;;;;18.14;58.74;100670.13;6217909;23;20354;-50
2022/07/15 06:44:35;;;;;;;4.10;2.50;;;;;;;18.22;57.69;100652.88;6217399;23;20139;-46
2022/07/15 06:47:06;;;;;;;5.00;2.67;;;;;;;18.33;56.83;100662.16;6217885;23;20010;-49
2022/07/15 06:49:35;;;;;;;5.10;2.67;;;;;;;18.40;57.11;100657.56;6244184;22;20043;-48
2022/07/15 06:52:01;;;;;;;7.45;4.05;;;;;;;18.47;55.96;100658.38;6200593;23;20012;-47
2022/07/15 06:54:27;;;;;;;3.85;2.70;;;;;;;18.54;57.04;100656.47;6242987;23;20451;-47
2022/07/15 06:56:52;;;;;;;2.95;2.50;;;;;;;18.68;57.00;100659.94;6243127;23;20141;-49
2022/07/15 06:59:18;;;;;;;6.63;2.90;;;;;;;18.79;57.77;100653.03;6244218;22;20012;-51
2022/07/15 07:01:45;;;;;;;3.58;2.47;;;;;;;18.89;56.90;100650.69;6243034;23;20431;-52
2022/07/15 07:04:10;;;;;;;3.35;2.75;;;;;;;18.95;55.29;100650.63;6242864;23;20062;-51
2022/07/15 07:06:36;;;;;;;6.25;2.58;;;;;;;19.03;54.85;100646.00;6244618;22;20091;-51
2022/07/15 07:09:03;;;;;;;5.72;2.67;;;;;;;19.09;55.05;100651.34;6242416;22;20020;-68
2022/07/15 07:11:29;;;;;;;5.63;2.78;;;;;;;19.14;55.38;100637.19;6242786;23;20083;-68
2022/07/15 07:13:54;;;;;;;5.18;2.65;;;;;;;19.23;54.99;100643.97;6244495;22;20032;-65
2022/07/15 07:16:20;;;;;;;15.10;3.42;;;;;;;19.35;55.18;100642.22;6242987;23;20066;-64
2022/07/15 07:18:45;;;;;;;4.47;2.40;;;;;;;19.44;55.00;100640.06;6244042;22;20020;-65
2022/07/15 07:21:12;;;;;;;5.43;2.28;;;;;;;19.52;54.92;100639.78;6244771;22;20485;-62
2022/07/15 07:23:39;;;;;;;5.28;2.83;;;;;;;19.59;54.05;100640.56;6244413;22;20088;-65
2022/07/15 07:26:06;;;;;;;2.75;2.03;;;;;;;19.66;52.51;100638.63;6244486;22;20292;-48
2022/07/15 07:28:32;;;;;;;4.95;2.55;;;;;;;19.72;52.07;100645.84;6244834;23;20020;-50
2022/07/15 07:30:59;;;;;;;7.78;2.10;;;;;;;19.81;52.26;100645.53;6244409;22;20044;-46
2022/07/15 07:33:25;;;;;;;3.78;2.35;;;;;;;19.89;52.26;100639.88;6244209;23;20015;-67
2022/07/15 07:35:51;;;;;;;3.42;2.17;;;;;;;20.01;52.64;100643.44;6244228;23;20018;-68
2022/07/15 07:38:19;;;;;;;3.33;2.50;;;;;;;20.14;51.50;100640.59;6244325;22;20043;-67
2022/07/15 07:40:47;;;;;;;4.82;2.15;;;;;;;20.20;51.25;100636.97;6243807;22;20046;-67
2022/07/15 07:43:15;;;;;;;5.20;2.80;;;;;;;20.33;51.57;100639.50;6244174;23;20042;-68
2022/07/15 07:45:40;;;;;;;4.90;2.70;;;;;;;20.40;50.46;100630.50;6244301;22;20016;-67
2022/07/15 07:48:06;;;;;;;5.07;2.25;;;;;;;20.54;49.86;100645.53;6242640;23;20351;-67
2022/07/15 07:50:32;;;;;;;3.50;2.30;;;;;;;20.58;48.52;100641.31;6243578;22;20070;-68
2022/07/15 07:52:57;;;;;;;3.33;1.95;;;;;;;20.69;47.92;100645.13;6269513;22;20089;-68
2022/07/15 07:55:23;;;;;;;3.22;1.70;;;;;;;20.77;47.71;100637.50;6274543;22;20097;-68
2022/07/15 07:57:50;;;;;;;2.60;1.98;;;;;;;20.84;45.98;100637.41;6274667;22;20347;-68
2022/07/15 08:00:17;;;;;;;4.22;1.90;;;;;;;20.92;46.04;100634.34;6274334;22;20351;-68
2022/07/15 08:02:42;;;;;;;6.18;2.55;;;;;;;21.00;45.91;100627.81;6274652;22;20007;-68
2022/07/15 08:05:08;;;;;;;5.05;2.50;;;;;;;21.03;45.07;100627.31;6274688;22;20012;-68
2022/07/15 08:07:35;;;;;;;3.97;1.90;;;;;;;21.09;45.39;100631.81;6274658;22;20035;-68
2022/07/15 08:10:02;;;;;;;4.00;1.80;;;;;;;21.20;45.32;100631.00;6246407;22;20438;-68
2022/07/15 08:12:28;;;;;;;2.85;1.90;;;;;;;21.32;45.68;100631.88;6273106;22;20026;-68
2022/07/15 08:14:54;;;;;;;4.22;2.20;;;;;;;21.48;44.13;100633.03;6246973;22;20495;-67
2022/07/15 08:17:21;;;;;;;4.45;2.22;;;;;;;21.58;44.21;100632.44;6274195;22;20043;-68
2022/07/15 08:19:46;;;;;;;5.43;2.00;;;;;;;21.77;44.16;100641.28;6273392;22;20015;-67
2022/07/15 08:22:12;;;;;;;3.95;2.20;;;;;;;21.83;43.94;100641.16;6221862;22;20011;-66
2022/07/15 08:24:37;;;;;;;2.88;1.70;;;;;;;21.93;44.00;100645.97;6274236;22;20392;-68
2022/07/15 08:27:03;;;;;;;5.68;2.30;;;;;;;21.90;42.01;100641.84;6274036;22;20012;-68
2022/07/15 08:29:28;;;;;;;3.05;1.75;;;;;;;21.98;41.39;100635.25;6273704;22;20038;-68
2022/07/15 08:31:54;;;;;;;3.78;1.88;;;;;;;22.10;42.29;100627.09;6274131;22;20347;-68
2022/07/15 08:34:19;;;;;;;4.97;1.75;;;;;;;22.15;41.23;100638.06;6274888;22;20019;-68
2022/07/15 08:36:45;;;;;;;3.75;1.90;;;;;;;22.09;42.49;100639.00;6274662;22;20016;-67
2022/07/15 08:39:11;;;;;;;5.57;1.85;;;;;;;22.13;41.02;100635.59;6273686;22;20099;-67
2022/07/15 08:41:37;;;;;;;3.60;1.63;;;;;;;22.40;42.08;100635.84;6274578;22;20011;-65
2022/07/15 08:44:04;;;;;;;2.10;1.48;;;;;;;22.62;40.75;100632.44;6275190;22;20443;-64
2022/07/15 08:46:32;;;;;;;2.67;1.40;;;;;;;22.78;39.98;100636.28;6274686;22;20026;-65
2022/07/15 08:49:12;;;;;;;4.50;1.73;;;;;;;22.81;38.74;100642.03;6273890;22;20019;-64
2022/07/15 08:51:42;;;;;;;3.70;1.50;;;;;;;23.04;40.32;100645.72;6273878;22;20023;-64
2022/07/15 08:54:07;;;;;;;2.70;1.77;;;;;;;22.77;38.04;100638.19;6273822;22;20458;-65
2022/07/15 08:56:34;;;;;;;2.53;1.42;;;;;;;22.96;39.18;100639.63;6274007;22;20003;-65
2022/07/15 08:59:01;;;;;;;6.70;1.90;;;;;;;23.05;38.35;100644.66;6273427;22;20094;-68
2022/07/15 09:01:29;;;;;;;4.78;1.65;;;;;;;23.10;37.65;100629.28;6274041;22;20008;-67
2022/07/15 09:03:54;;;;;;;;;;;;;;;23.37;37.85;100639.47;6274640;22;20016;-69
2022/07/15 09:06:37;;;;;;;3.22;1.63;;;;;;;23.47;36.25;100640.47;6274201;22;19922;-68
2022/07/15 09:09:18;;;;;;;5.70;1.70;;;;;;;23.62;37.24;100636.34;6274648;22;20045;-68
2022/07/15 09:11:43;;;;;;;5.63;1.95;;;;;;;23.54;37.18;100641.13;6275782;22;20098;-69
2022/07/15 09:14:13;;;;;;;3.17;1.60;;;;;;;23.66;36.79;100638.31;6276033;22;20046;-69
2022/07/15 09:16:39;;;;;;;2.17;1.42;;;;;;;23.98;37.64;100638.47;6276069;22;20016;-69
2022/07/15 09:19:04;;;;;;;4.82;1.75;;;;;;;24.21;37.48;100637.41;6275288;22;20016;-68
2022/07/15 09:21:29;;;;;;;2.50;1.55;;;;;;;24.19;36.32;100634.13;6249118;22;20049;-69
2022/07/15 09:23:55;;;;;;;2.88;1.50;;;;;;;24.32;36.52;100643.78;6249061;22;20023;-68
2022/07/15 09:26:32;;;;;;;1.98;1.30;;;;;;;24.46;37.35;100645.09;6275938;22;20328;-69
2022/07/15 09:28:59;;;;;;;4.97;1.90;;;;;;;24.70;36.40;100639.31;6275279;22;20362;-69
2022/07/15 09:35:03;;;;;;;5.25;1.52;;;;;;;24.88;35.59;100634.31;6224634;22;20026;-65
2022/07/15 09:37:28;;;;;;;3.60;1.75;;;;;;;24.98;34.94;100630.88;6276217;22;20012;-65
2022/07/15 09:39:56;;;;;;;4.47;1.40;;;;;;;25.23;35.23;100633.00;6275216;22;20087;-66
2022/07/15 09:42:22;;;;;;;1.88;1.55;;;;;;;25.36;34.64;100635.28;6275802;22;20012;-66
2022/07/15 09:44:47;;;;;;;3.78;1.75;;;;;;;25.41;34.85;100642.69;6275958;22;20087;-65
2022/07/15 09:47:20;;;;;;;7.07;2.20;;;;;;;25.48;35.54;100640.56;6275848;22;20011;-66
2022/07/15 09:49:46;;;;;;;3.28;1.85;;;;;;;25.47;37.14;100641.66;6275095;22;20015;-65
2022/07/15 09:52:14;;;;;;;2.38;1.60;;;;;;;25.74;36.11;100640.75;6275729;22;20008;-65
2022/07/15 09:54:39;;;;;;;4.30;2.00;;;;;;;25.66;35.17;100639.31;6275857;22;20047;-66
2022/07/15 09:57:07;;;;;;;2.47;1.55;;;;;;;25.91;35.75;100644.13;6275827;22;20320;-66
2022/07/15 09:59:33;;;;;;;6.10;1.85;;;;;;;26.01;35.24;100637.88;6275023;22;20026;-64
2022/07/15 10:01:59;;;;;;;4.15;1.70;;;;;;;26.13;34.92;100633.84;6275784;22;20115;-63
2022/07/15 10:04:26;;;;;;;2.75;1.55;;;;;;;26.12;33.88;100640.41;6275813;22;20039;-64
2022/07/15 10:06:54;;;;;;;3.97;1.75;;;;;;;26.15;34.48;100634.41;6275767;22;20008;-64
2022/07/15 10:09:22;;;;;;;2.55;1.65;;;;;;;26.73;36.27;100626.97;6274975;22;20039;-64
2022/07/15 10:11:51;;;;;;;5.50;1.80;;;;;;;26.77;34.07;100628.03;6275416;22;20018;-64
2022/07/15 10:14:29;;;;;;;2.65;1.20;;;;;;;27.28;36.01;100630.81;6275505;22;20449;-61
2022/07/15 10:17:08;;;;;;;2.85;1.52;;;;;;;27.25;32.14;100623.16;6275741;22;20011;-63
2022/07/15 10:19:45;;;;;;;3.30;1.90;;;;;;;27.67;32.63;100618.44;6274738;22;20504;-63
2022/07/15 10:22:32;;;;;;;2.70;1.67;;;;;;;27.75;33.61;100620.63;6275530;22;20011;-64
2022/07/15 10:25:03;;;;;;;;;;;;;;;28.28;35.32;100623.69;6276120;22;20012;-48
2022/07/15 10:27:50;;;;;;;5.00;1.40;;;;;;;28.55;31.16;100620.56;6275266;22;19914;-65
2022/07/15 10:30:21;;;;;;;4.00;1.88;;;;;;;28.37;29.95;100622.88;6274412;22;20011;-65
2022/07/15 10:33:02;;;;;;;2.65;1.55;;;;;;;28.05;30.30;100617.78;6275261;22;20012;-64
2022/07/15 10:35:34;;;;;;;5.88;1.98;;;;;;;28.77;30.87;100615.47;6275482;22;20016;-65
2022/07/15 10:38:29;;;;;;;2.53;1.70;;;;;;;28.77;30.92;100614.66;6275467;22;20012;-64
2022/07/15 10:41:04;;;;;;;5.13;1.35;;;;;;;28.41;30.25;100611.34;6274066;22;20016;-64
2022/07/15 10:43:50;;;;;;;2.13;1.50;;;;;;;28.98;31.09;100604.38;6275589;22;20016;-64
2022/07/15 10:46:15;;;;;;;4.00;1.77;;;;;;;28.99;30.58;100604.09;6275359;22;20439;-65
2022/07/15 10:48:45;;;;;;;2.75;1.30;;;;;;;29.27;29.38;100594.22;6274472;22;20007;-65
2022/07/15 10:51:11;;;;;;;3.63;1.55;;;;;;;29.45;27.80;100600.91;6274629;22;20043;-64
2022/07/15 10:53:45;;;;;;;3.83;1.60;;;;;;;29.36;29.19;100588.94;6275349;22;20138;-65
2022/07/15 10:56:40;;;;;;;2.20;1.55;;;;;;;29.49;28.27;100591.00;6275279;22;20354;-63
2022/07/15 10:59:26;;;;;;;2.50;1.83;;;;;;;30.05;28.56;100592.28;6274719;22;20038;-63
2022/07/15 11:01:58;;;;;;;3.78;1.40;;;;;;;29.94;28.03;100588.88;6274772;22;20070;-61
2022/07/15 11:04:25;;;;;;;2.85;1.35;;;;;;;30.10;27.12;100589.50;6275111;22;20021;-63
2022/07/15 11:07:03;;;;;;;3.63;1.60;;;;;;;30.04;28.70;100590.66;6275155;22;20062;-63
2022/07/15 11:09:45;;;;;;;4.00;1.58;;;;;;;30.55;29.38;100596.28;6274050;22;20014;-65
2022/07/15 11:12:11;;;;;;;2.88;1.55;;;;;;;30.63;28.74;100584.59;6274695;22;20012;-64
2022/07/15 11:15:04;;;;;;;3.40;1.40;;;;;;;30.76;28.23;100583.88;6275014;22;20432;-64
2022/07/15 11:17:29;;;;;;;4.60;1.70;;;;;;;31.00;26.52;100585.69;6262231;22;20350;-65
2022/07/15 11:20:04;;;;;;;5.05;1.60;;;;;;;30.40;29.21;100597.31;6273852;22;20039;-68
2022/07/15 11:22:29;;;;;;;4.25;1.38;;;;;;;30.57;27.96;100595.97;6275120;22;20046;-68
2022/07/15 11:24:56;;;;;;;3.47;1.92;;;;;;;30.79;27.45;100590.72;6247905;22;20020;-67
2022/07/15 11:27:24;;;;;;;3.33;1.38;;;;;;;31.03;26.88;100583.13;6274704;22;20007;-65
2022/07/15 11:29:58;;;;;;;3.22;1.60;;;;;;;31.60;26.96;100589.28;6273852;22;20019;-66
2022/07/15 11:32:25;;;;;;;2.00;1.40;;;;;;;31.65;25.83;100580.09;6274796;22;20034;-67
2022/07/15 11:34:56;;;;;;;2.90;1.42;;;;;;;31.46;26.16;100574.69;6275024;22;20632;-67
2022/07/15 11:37:25;;;;;;;3.80;1.40;;;;;;;31.42;27.94;100584.66;6274836;22;20008;-66
2022/07/15 11:40:05;;;;;;;3.85;1.80;;;;;;;31.93;26.55;100583.69;6273979;22;20054;-66
2022/07/15 11:45:16;;;;;;;2.58;1.60;;;;;;;31.85;25.39;100587.97;6274752;22;20035;-67
2022/07/15 11:47:53;;;;;;;4.70;1.63;;;;;;;31.55;25.90;100588.53;6274834;22;20072;-67
2022/07/15 11:50:19;;;;;;;;;;;;;;;31.11;27.79;100581.66;6274217;22;20015;-66
2022/07/15 11:52:45;;;;;;;3.40;1.42;;;;;;;31.39;27.33;100581.72;6274508;22;19911;-66
2022/07/15 11:55:10;;;;;;;5.13;2.13;;;;;;;32.33;25.36;100572.91;6275169;22;20020;-65
2022/07/15 11:57:36;;;;;;;4.67;1.43;;;;;;;31.84;28.34;100577.28;6274637;22;20023;-65
2022/07/15 12:00:02;;;;;;;4.07;1.93;;;;;;;32.23;25.35;100575.88;6273705;22;20058;-64
2022/07/15 12:02:37;;;;;;;3.40;1.58;;;;;;;32.30;24.65;100576.28;6274515;22;20046;-63
2022/07/15 12:05:05;;;;;;;3.70;1.80;;;;;;;32.28;25.14;100584.03;6275259;22;20586;-65
2022/07/15 12:07:40;;;;;;;2.88;1.55;;;;;;;32.33;23.67;100586.69;6275049;22;20015;-66
2022/07/15 12:10:06;;;;;;;2.92;1.50;;;;;;;31.96;26.75;100582.25;6273915;22;20012;-67
2022/07/15 12:12:32;;;;;;;3.17;1.40;;;;;;;32.17;23.72;100574.38;6274629;22;20476;-69
2022/07/15 12:14:58;;;;;;;2.80;1.43;;;;;;;32.75;24.76;100582.66;6274911;22;20090;-69
2022/07/15 12:17:24;;;;;;;3.00;1.30;;;;;;;32.98;24.59;100579.91;6274494;22;20086;-65
2022/07/15 12:19:51;;;;;;;2.10;1.50;;;;;;;33.17;22.48;100578.56;6273917;22;20098;-67
2022/07/15 12:22:17;;;;;;;2.00;1.40;;;;;;;32.96;22.66;100577.47;6274581;22;20011;-66
2022/07/15 12:24:44;;;;;;;2.63;1.33;;;;;;;32.03;23.33;100569.69;6247423;22;20014;-68
2022/07/15 12:27:10;;;;;;;2.05;1.60;;;;;;;32.16;22.61;100576.31;6274281;22;20153;-65
2022/07/15 12:29:37;;;;;;;3.05;1.30;;;;;;;32.40;23.55;100581.56;6273741;22;20095;-65
2022/07/15 12:32:05;;;;;;;3.00;1.42;;;;;;;32.67;24.52;100575.97;6274698;22;20385;-65
2022/07/15 12:34:46;;;;;;;2.65;1.58;;;;;;;32.99;23.25;100576.03;6274341;22;20012;-67
2022/07/15 12:37:13;;;;;;;3.72;1.67;;;;;;;32.53;24.13;100579.88;6274426;22;20012;-68
2022/07/15 12:39:58;;;;;;;2.10;1.40;;;;;;;32.53;24.34;100580.69;6273360;22;20018;-67
2022/07/15 12:42:25;;;;;;;3.20;1.50;;;;;;;32.59;22.08;100578.63;6275020;22;20335;-68
2022/07/15 12:45:12;;;;;;;2.47;1.30;;;;;;;32.47;23.31;100573.66;6276564;22;20016;-68
2022/07/15 12:47:55;;;;;;;;;;;;;;;32.29;23.51;100571.88;6276967;22;20498;-68
2022/07/15 12:50:21;;;;;;;2.05;1.38;;;;;;;32.63;23.48;100563.09;6274299;22;19914;-68
2022/07/15 12:52:47;;;;;;;2.90;1.37;;;;;;;32.23;24.54;100562.09;6248778;22;20015;-68
2022/07/15 12:55:31;;;;;;;2.75;1.33;;;;;;;31.82;24.12;100561.06;6276179;22;20417;-68
2022/07/15 12:58:07;;;;;;;6.53;1.50;;;;;;;31.71;24.45;100564.28;6276064;22;20012;-67
2022/07/15 13:00:34;;;;;;;3.28;1.63;;;;;;;31.85;25.60;100563.19;6275061;22;20011;-69
2022/07/15 13:03:03;;;;;;;3.10;2.30;;;;;;;32.55;24.40;100564.69;6275986;22;20016;-68
2022/07/15 13:05:32;;;;;;;2.25;1.40;;;;;;;32.06;25.00;100554.47;6275665;22;20007;-68
2022/07/15 13:07:58;;;;;;;3.63;2.10;;;;;;;32.68;24.84;100561.03;6276064;22;20003;-68
2022/07/15 13:10:23;;;;;;;4.20;2.87;;;;;;;32.49;24.88;100563.16;6274909;22;20011;-68
2022/07/15 13:12:49;;;;;;;5.27;3.40;;;;;;;32.72;23.58;100557.66;6276070;22;20463;-67
2022/07/15 13:15:15;;;;;;;4.10;1.70;;;;;;;32.69;23.33;100559.09;6276000;22;20023;-68
2022/07/15 13:17:40;;;;;;;2.80;1.53;;;;;;;32.70;25.53;100569.00;6275977;22;20016;-68
2022/07/15 13:20:06;;;;;;;4.60;1.70;;;;;;;32.89;24.41;100561.38;6274745;22;20457;-69
2022/07/15 13:22:34;;;;;;;3.35;1.70;;;;;;;32.05;24.98;100559.19;6275929;22;20033;-68
2022/07/15 13:25:00;;;;;;;5.85;2.63;;;;;;;31.79;26.06;100556.16;6276026;22;20120;-67
2022/07/15 13:27:26;;;;;;;3.40;1.67;;;;;;;31.27;26.09;100560.19;6248885;22;20012;-68
2022/07/15 13:29:52;;;;;;;2.33;1.60;;;;;;;31.13;25.33;100551.09;6274909;22;20069;-67
2022/07/15 13:32:17;;;;;;;5.47;1.90;;;;;;;30.83;25.94;100553.25;6275778;22;20439;-68
2022/07/15 13:34:43;;;;;;;2.78;1.38;;;;;;;29.89;27.28;100561.47;6275506;22;20258;-68
2022/07/15 13:37:08;;;;;;;2.63;1.50;;;;;;;29.77;28.17;100556.41;6275772;22;20015;-68
2022/07/15 13:39:34;;;;;;;4.80;1.70;;;;;;;29.88;28.04;100560.66;6274653;22;20423;-67
2022/07/15 13:41:59;;;;;;;2.53;1.60;;;;;;;29.80;28.08;100555.81;6275733;22;20011;-67
2022/07/15 13:44:24;;;;;;;3.63;2.22;;;;;;;29.65;27.93;100551.31;6248601;22;20102;-67
2022/07/15 13:46:50;;;;;;;6.18;5.15;;;;;;;29.62;29.33;100551.09;6275504;22;20023;-69
2022/07/15 13:49:15;;;;;;;3.80;2.85;;;;;;;29.35;27.37;100546.97;6274797;22;20019;-68
2022/07/15 13:51:41;;;;;;;1.67;1.55;;;;;;;28.80;29.30;100543.63;6274987;22;20051;-68
2022/07/15 13:54:08;;;;;;;5.40;2.30;;;;;;;28.62;28.87;100538.84;6275780;22;20153;-69
2022/07/15 13:56:34;;;;;;;2.97;1.80;;;;;;;28.69;30.37;100544.84;6275624;22;20016;-68
2022/07/15 13:59:01;;;;;;;3.58;1.63;;;;;;;28.11;30.17;100544.66;6274638;22;20335;-67
2022/07/15 14:01:30;;;;;;;3.85;1.70;;;;;;;27.81;30.63;100543.72;6275646;22;20069;-69
2022/07/15 14:03:56;;;;;;;3.53;1.70;;;;;;;28.12;29.70;100549.03;6275737;22;20008;-66
2022/07/15 14:06:21;;;;;;;3.30;2.08;;;;;;;28.23;30.67;100553.31;6275798;22;20350;-66
2022/07/15 14:08:47;;;;;;;3.83;1.90;;;;;;;28.10;28.96;100548.47;6274932;22;20030;-66
2022/07/15 14:11:12;;;;;;;4.28;1.80;;;;;;;28.22;30.08;100551.69;6275669;22;20066;-66
2022/07/15 14:13:38;;;;;;;2.97;1.75;;;;;;;28.04;30.84;100542.25;6275352;22;20019;-66
2022/07/15 14:16:04;;;;;;;4.55;1.92;;;;;;;27.93;30.86;100542.56;6275623;22;20335;-47
2022/07/15 14:18:48;;;;;;;3.35;1.90;;;;;;;27.85;30.16;100546.72;6275655;22;20012;-47
2022/07/15 14:21:16;;;;;;;3.42;1.80;;;;;;;27.37;30.26;100553.66;6275658;22;20339;-48
2022/07/15 14:23:43;;;;;;;3.20;1.73;;;;;;;27.40;30.64;100545.75;6275454;22;20010;-48
2022/07/15 14:26:09;;;;;;;2.20;1.75;;;;;;;27.29;30.68;100544.94;6248945;22;20018;-50
2022/07/15 14:28:35;;;;;;;2.95;1.60;;;;;;;27.21;30.15;100536.50;6275060;22;20198;-46
2022/07/15 14:31:01;;;;;;;5.20;2.55;;;;;;;27.20;31.48;100543.88;6274951;22;20007;-53
2022/07/15 14:33:26;;;;;;;4.65;1.75;;;;;;;27.34;32.77;100537.84;6276149;22;20012;-47
2022/07/15 14:35:52;;;;;;;8.40;1.95;;;;;;;27.37;31.88;100532.59;6275698;22;20503;-48
2022/07/15 14:38:17;;;;;;;2.88;2.17;;;;;;;27.15;31.96;100532.94;6275342;22;20090;-51
2022/07/15 14:40:43;;;;;;;4.20;2.00;;;;;;;27.26;33.60;100522.81;6274368;22;20015;-49
2022/07/15 14:43:08;;;;;;;4.07;1.95;;;;;;;27.26;32.06;100528.28;6275244;22;20069;-47
2022/07/15 14:45:34;;;;;;;6.85;2.10;;;;;;;27.09;31.74;100528.59;6275390;22;20379;-50
2022/07/15 14:47:59;;;;;;;1.90;1.50;;;;;;;27.10;31.96;100522.00;6275378;22;20354;-47
2022/07/15 14:50:25;;;;;;;2.35;1.60;;;;;;;27.00;31.33;100519.28;6274217;22;20023;-48
2022/07/15 14:52:50;;;;;;;5.03;2.13;;;;;;;27.05;31.39;100524.75;6274950;22;20026;-47
2022/07/15 14:55:16;;;;;;;3.20;1.80;;;;;;;26.96;32.71;100520.91;6275180;22;20019;-47
2022/07/15 14:57:41;;;;;;;6.45;2.00;;;;;;;26.87;32.13;100519.84;6274907;22;20347;-47
2022/07/15 15:00:07;;;;;;;3.65;2.13;;;;;;;26.76;32.07;100522.56;6274244;22;20012;-46
2022/07/15 15:02:33;;;;;;;2.17;1.88;;;;;;;26.76;34.49;100519.03;6274976;22;20486;-46
2022/07/15 15:04:58;;;;;;;2.60;1.60;;;;;;;26.53;32.23;100523.09;6274645;22;20016;-46
2022/07/15 15:07:24;;;;;;;2.80;2.10;;;;;;;26.57;32.76;100523.38;6247708;22;20012;-47
2022/07/15 15:09:49;;;;;;;2.75;1.63;;;;;;;26.34;32.41;100524.69;6274191;22;20038;-48
2022/07/15 15:12:15;;;;;;;4.60;1.95;;;;;;;26.45;32.47;100524.47;6247716;22;20438;-46
2022/07/15 15:14:40;;;;;;;2.30;1.77;;;;;;;26.57;33.54;100526.13;6275210;22;20011;-50
2022/07/15 15:17:07;;;;;;;4.43;2.00;;;;;;;26.63;33.58;100530.50;6275077;22;20106;-49
2022/07/15 15:19:34;;;;;;;3.60;1.90;;;;;;;26.65;33.51;100528.31;6274169;22;20434;-48
2022/07/15 15:21:59;;;;;;;4.75;2.00;;;;;;;26.75;33.82;100520.13;6274867;22;20067;-49
2022/07/15 15:24:25;;;;;;;4.03;2.08;;;;;;;26.77;35.09;100524.22;6274819;22;20011;-50
2022/07/15 15:26:50;;;;;;;3.65;1.92;;;;;;;26.65;32.60;100523.66;6274633;22;20008;-49
2022/07/15 15:29:16;;;;;;;5.43;1.92;;;;;;;26.48;31.70;100532.13;6274065;22;20039;-49
2022/07/15 15:31:42;;;;;;;2.80;1.85;;;;;;;26.36;32.07;100528.00;6274836;22;20043;-50
2022/07/15 15:34:07;;;;;;;2.95;1.75;;;;;;;26.34;32.51;100530.97;6274987;22;20023;-50
2022/07/15 15:36:33;;;;;;;2.72;1.92;;;;;;;26.16;32.70;100523.31;6274750;22;20015;-48
2022/07/15 15:38:58;;;;;;;2.05;1.52;;;;;;;25.96;32.98;100526.81;6273829;22;20046;-50
2022/07/15 15:41:24;;;;;;;2.83;1.85;;;;;;;25.93;33.30;100538.25;6274573;22;20008;-51
2022/07/15 15:43:49;;;;;;;3.72;1.90;;;;;;;25.88;33.42;100533.59;6247520;22;20031;-49
2022/07/15 15:46:15;;;;;;;3.13;1.90;;;;;;;25.84;32.98;100537.97;6274672;22;20019;-50
2022/07/15 15:48:40;;;;;;;4.15;2.00;;;;;;;25.84;33.78;100539.88;6273566;22;20016;-47
2022/07/15 15:51:06;;;;;;;5.15;1.98;;;;;;;25.62;33.96;100535.34;6273916;22;20039;-47
2022/07/15 15:53:32;;;;;;;2.08;1.88;;;;;;;25.61;33.41;100530.19;6274556;22;20465;-50
2022/07/15 15:55:57;;;;;;;3.72;1.90;;;;;;;25.61;34.18;100538.34;6274606;22;20016;-48
2022/07/15 15:58:23;;;;;;;2.33;1.77;;;;;;;25.60;33.97;100526.63;6274676;22;20022;-48
2022/07/15 16:00:48;;;;;;;2.85;1.70;;;;;;;25.75;34.22;100530.53;6272892;22;20071;-48
2022/07/15 16:03:14;;;;;;;3.03;1.83;;;;;;;25.70;33.95;100528.59;6274682;22;20426;-50
2022/07/15 16:05:40;;;;;;;3.53;2.08;;;;;;;25.67;34.27;100529.94;6274504;22;20047;-48
2022/07/15 16:08:06;;;;;;;1.90;1.60;;;;;;;25.63;33.96;100534.31;6274611;22;20015;-51
2022/07/15 16:10:32;;;;;;;3.38;2.20;;;;;;;25.65;34.12;100534.03;6273459;22;20078;-47
2022/07/15 16:12:57;;;;;;;2.35;2.00;;;;;;;25.46;34.05;100528.22;6274534;22;20011;-47
2022/07/15 16:15:22;;;;;;;2.70;1.75;;;;;;;25.46;34.44;100520.03;6274623;22;20438;-49
2022/07/15 16:17:48;;;;;;;4.40;2.00;;;;;;;25.50;35.42;100532.06;6274434;22;20186;-48
2022/07/15 16:20:13;;;;;;;2.78;1.83;;;;;;;25.48;34.77;100527.94;6273960;22;20016;-47
2022/07/15 16:22:55;;;;;;;2.45;1.70;;;;;;;25.32;34.27;100519.69;6274491;22;20019;-53
2022/07/15 16:25:41;;;;;;;3.13;2.05;;;;;;;25.30;34.54;100515.56;6274835;22;20360;-49
2022/07/15 16:28:13;;;;;;;2.53;1.80;;;;;;;25.34;35.54;100522.97;6274463;22;20350;-49
2022/07/15 16:30:40;;;;;;;4.95;2.60;;;;;;;25.39;35.74;100517.53;6274113;22;20022;-51
2022/07/15 16:33:06;;;;;;;2.00;1.80;;;;;;;25.08;34.64;100513.81;6222090;22;20094;-52
2022/07/15 16:35:32;;;;;;;3.97;2.25;;;;;;;25.17;35.31;100511.44;6274453;22;20050;-49
2022/07/15 16:37:58;;;;;;;5.68;1.98;;;;;;;25.12;36.23;100508.66;6274406;22;20076;-48
2022/07/15 16:40:25;;;;;;;5.78;1.95;;;;;;;25.13;35.42;100502.94;6273972;22;20016;-50
2022/07/15 16:42:51;;;;;;;6.50;3.85;;;;;;;25.16;35.71;100498.84;6274421;22;20035;-48
2022/07/15 16:45:17;;;;;;;4.20;2.10;;;;;;;25.07;35.46;100509.44;6274471;22;20015;-48
2022/07/15 16:47:43;;;;;;;3.50;2.72;;;;;;;25.05;35.20;100510.81;6274338;22;20461;-47
2022/07/15 16:50:09;;;;;;;2.40;1.73;;;;;;;24.93;34.77;100505.50;6273954;22;20016;-51
2022/07/15 16:52:35;;;;;;;4.55;1.90;;;;;;;24.94;35.38;100501.69;6274264;22;20015;-52
2022/07/15 16:55:01;;;;;;;2.00;1.80;;;;;;;24.87;35.36;100501.91;6274373;22;20155;-49
2022/07/15 16:57:27;;;;;;;3.67;2.20;;;;;;;24.90;35.61;100506.84;6274691;22;20500;-48
2022/07/15 16:59:52;;;;;;;4.68;2.20;;;;;;;24.80;35.92;100498.59;6273841;22;20011;-52
2022/07/15 17:02:18;;;;;;;3.15;2.28;;;;;;;24.81;35.61;100505.69;6274428;22;20019;-48
2022/07/15 17:04:44;;;;;;;4.10;3.08;;;;;;;24.81;35.44;100508.41;6274308;22;20019;-48
2022/07/15 17:07:10;;;;;;;4.13;2.00;;;;;;;24.85;36.94;100512.28;6274311;22;20419;-50
2022/07/15 17:09:37;;;;;;;4.32;2.10;;;;;;;24.77;35.68;100504.56;6273819;22;20012;-48
2022/07/15 17:12:04;;;;;;;2.63;2.10;;;;;;;24.79;36.02;100512.50;6274229;22;20023;-49
2022/07/15 17:14:30;;;;;;;3.85;2.20;;;;;;;24.95;35.82;100508.78;6274324;22;20095;-48
2022/07/15 17:16:56;;;;;;;4.15;2.33;;;;;;;24.93;35.38;100510.97;6274260;22;20035;-50
2022/07/15 17:19:21;;;;;;;3.47;2.30;;;;;;;24.91;36.02;100507.69;6273809;22;20427;-49
2022/07/15 17:21:47;;;;;;;5.55;2.42;;;;;;;24.85;35.41;100514.19;6274285;22;20014;-52
2022/07/15 17:24:13;;;;;;;3.00;2.03;;;;;;;24.84;36.07;100507.06;6274151;22;20439;-53
2022/07/15 17:26:38;;;;;;;2.90;2.10;;;;;;;24.84;36.86;100502.47;6274196;22;20107;-54